Time;durP1;ratioP1;P1;durP2;ratioP2;P2;SDS_P1;SDS_P2;PMS_P1;PMS_P2;Temp;Humidity;BMP_temperature;BMP_pressure;BME280_temperature;BME280_humidity;BME280_pressure;Samples;Min_cycle;Max_cycle;Signal;HPM_P1;HPM_P2
2021/10/21 00:01:40;;;;;;;2.65;1.23;;;;;;;7.22;100.00;99748.44;4881062;29;20044;-93
2021/10/21 00:04:07;;;;;;;1.23;0.65;;;;;;;7.00;100.00;99729.53;4903714;29;20442;-92
2021/10/21 00:06:33;;;;;;;0.50;0.45;;;;;;;7.16;100.00;99762.53;4880009;29;20060;-93
2021/10/21 00:08:58;;;;;;;2.10;0.88;;;;;;;7.10;100.00;99771.25;4890733;29;20122;-93
2021/10/21 00:11:25;;;;;;;4.65;0.90;;;;;;;7.05;100.00;99777.13;4911609;29;20017;-93
2021/10/21 00:13:58;;;;;;;5.70;1.13;;;;;;;6.92;100.00;99772.38;4889893;29;20478;-94
2021/10/21 00:16:29;;;;;;;7.82;1.00;;;;;;;6.89;100.00;99761.19;4907131;29;20043;-93
2021/10/21 00:18:55;;;;;;;0.50;0.50;;;;;;;7.00;100.00;99806.22;4903929;29;20434;-93
2021/10/21 00:21:21;;;;;;;0.63;0.63;;;;;;;6.78;100.00;99789.97;4866643;29;20070;-94
2021/10/21 00:23:56;;;;;;;2.70;0.95;;;;;;;6.89;100.00;99826.16;4886246;29;20032;-92
2021/10/21 00:26:24;;;;;;;2.05;0.60;;;;;;;6.75;100.00;99814.38;4899673;29;20473;-95
2021/10/21 00:29:02;;;;;;;3.42;0.80;;;;;;;6.84;100.00;99839.22;4878953;29;20039;-94
2021/10/21 00:31:28;;;;;;;1.10;0.65;;;;;;;6.73;100.00;99831.59;4870337;29;20028;-91
2021/10/21 00:33:56;;;;;;;4.85;1.40;;;;;;;6.83;100.00;99864.28;4883820;29;20128;-92
2021/10/21 00:36:22;;;;;;;4.10;1.50;;;;;;;6.77;100.00;99859.59;4883663;29;20055;-92
2021/10/21 00:38:51;;;;;;;3.67;0.73;;;;;;;6.77;100.00;99865.81;4882461;29;20037;-93
2021/10/21 00:41:17;;;;;;;4.32;1.15;;;;;;;6.81;100.00;99883.16;4883824;29;20036;-93
2021/10/21 00:43:48;;;;;;;15.45;3.55;;;;;;;6.86;100.00;99895.16;4882753;29;20395;-94
2021/10/21 00:46:15;;;;;;;8.68;1.42;;;;;;;6.64;100.00;99876.19;4865829;29;20040;-93
2021/10/21 00:48:47;;;;;;;1.17;1.05;;;;;;;6.75;100.00;99913.22;4871350;29;20040;-93
2021/10/21 00:51:20;;;;;;;2.63;1.10;;;;;;;6.58;100.00;99903.59;4881076;29;20035;-93
2021/10/21 00:54:06;;;;;;;4.88;1.05;;;;;;;6.54;100.00;99894.25;4877602;29;20471;-94
2021/10/21 00:56:38;;;;;;;5.35;1.35;;;;;;;6.52;100.00;99922.97;4877634;29;21417;-92
2021/10/21 00:59:21;;;;;;;7.70;2.13;;;;;;;6.56;100.00;99933.16;4872127;29;20121;-92
2021/10/21 01:02:07;;;;;;;4.32;1.05;;;;;;;6.57;100.00;99945.50;4879979;29;20040;-93
2021/10/21 01:04:46;;;;;;;1.27;0.88;;;;;;;6.38;100.00;99922.66;4883350;29;20402;-92
2021/10/21 01:07:31;;;;;;;10.48;1.27;;;;;;;6.45;100.00;99951.34;4869398;29;20036;-94
2021/10/21 01:09:57;;;;;;;7.75;1.75;;;;;;;6.32;100.00;99947.34;4862467;29;20028;-95
2021/10/21 01:12:28;;;;;;;4.43;1.38;;;;;;;6.45;100.00;99968.19;4880320;29;20036;-92
2021/10/21 01:14:55;;;;;;;5.97;0.98;;;;;;;6.30;100.00;99951.22;4863056;29;20043;-93
2021/10/21 01:17:41;;;;;;;2.63;0.73;;;;;;;6.28;100.00;99963.88;4888586;29;20052;-93
2021/10/21 01:20:13;;;;;;;1.45;0.65;;;;;;;6.15;100.00;99965.22;4885110;29;20040;-94
2021/10/21 01:22:46;;;;;;;10.13;1.77;;;;;;;6.20;100.00;100002.09;4877516;29;20040;-93
2021/10/21 01:25:16;;;;;;;6.97;1.38;;;;;;;6.09;100.00;99992.56;4881187;29;20067;-93
2021/10/21 01:27:43;;;;;;;6.22;1.23;;;;;;;5.98;100.00;100019.59;4867062;29;20044;-92
2021/10/21 01:30:20;;;;;;;2.28;1.30;;;;;;;5.75;100.00;100016.66;4876421;29;20051;-92
2021/10/21 01:32:47;;;;;;;12.95;1.90;;;;;;;5.67;100.00;100030.81;4896405;29;20184;-93
2021/10/21 01:35:18;;;;;;;8.60;1.33;;;;;;;5.64;100.00;100056.97;4878445;29;20045;-93
2021/10/21 01:37:49;;;;;;;7.97;1.83;;;;;;;5.62;100.00;100064.31;4865507;29;20470;-92
2021/10/21 01:40:38;;;;;;;12.27;2.15;;;;;;;5.42;100.00;100058.38;4883442;29;20040;-93
2021/10/21 01:43:08;;;;;;;10.52;1.13;;;;;;;5.29;100.00;100067.66;4878026;29;20044;-93
2021/10/21 01:45:36;;;;;;;0.82;0.73;;;;;;;5.19;100.00;100066.94;4881666;29;20040;-93
2021/10/21 01:48:03;;;;;;;13.23;2.92;;;;;;;5.23;100.00;100089.59;4879768;29;20036;-93
2021/10/21 01:50:34;;;;;;;10.23;1.83;;;;;;;5.13;100.00;100077.38;4877239;29;20036;-92
2021/10/21 01:53:13;;;;;;;12.73;1.92;;;;;;;5.20;100.00;100097.91;4867724;29;20040;-92
2021/10/21 01:55:46;;;;;;;7.43;1.30;;;;;;;5.01;100.00;100072.31;4878314;29;20036;-93
2021/10/21 01:58:13;;;;;;;7.30;1.90;;;;;;;4.95;100.00;100069.41;4882745;29;20378;-93
2021/10/21 02:00:41;;;;;;;6.65;1.25;;;;;;;4.98;100.00;100088.63;4894943;29;20191;-92
2021/10/21 02:03:07;;;;;;;10.50;2.08;;;;;;;4.93;100.00;100090.91;4870704;29;20119;-93
2021/10/21 02:05:35;;;;;;;8.30;1.38;;;;;;;4.99;100.00;100108.09;4880799;29;20063;-93
2021/10/21 02:08:03;;;;;;;7.70;1.05;;;;;;;4.91;100.00;100118.69;4902186;29;20036;-93
2021/10/21 02:10:29;;;;;;;6.07;1.45;;;;;;;4.77;100.00;100114.75;4880960;29;20080;-93
2021/10/21 02:12:57;;;;;;;6.70;1.10;;;;;;;4.87;100.00;100136.81;4883870;29;20442;-93
2021/10/21 02:15:26;;;;;;;3.67;1.40;;;;;;;4.73;100.00;100122.19;4881710;29;20048;-92
2021/10/21 02:17:51;;;;;;;15.52;2.75;;;;;;;4.76;100.00;100148.56;4855272;29;20080;-93
2021/10/21 02:20:20;;;;;;;12.02;1.88;;;;;;;4.64;100.00;100147.09;4881039;29;20043;-92
2021/10/21 02:22:49;;;;;;;8.10;1.38;;;;;;;4.57;100.00;100146.84;4885774;29;20079;-93
2021/10/21 02:25:19;;;;;;;6.60;1.17;;;;;;;4.64;100.00;100187.03;4887236;29;20036;-93
2021/10/21 02:27:48;;;;;;;14.38;1.67;;;;;;;4.55;100.00;100177.28;4884818;29;20541;-92
2021/10/21 02:30:18;;;;;;;8.65;1.25;;;;;;;4.48;100.00;100187.72;4896986;29;20051;-93
2021/10/21 02:32:47;;;;;;;5.07;0.83;;;;;;;4.42;100.00;100193.66;4868281;29;20486;-93
2021/10/21 02:35:13;;;;;;;7.43;1.05;;;;;;;4.56;100.00;100224.25;4879592;29;20035;-93
2021/10/21 02:37:42;;;;;;;10.15;1.75;;;;;;;4.61;100.00;100228.13;4877517;29;20051;-92
2021/10/21 02:40:10;;;;;;;10.20;1.77;;;;;;;4.79;100.00;100246.78;4887305;29;20475;-92
2021/10/21 02:42:37;;;;;;;12.15;2.53;;;;;;;4.86;100.00;100263.00;4884290;29;20036;-92
2021/10/21 02:45:09;;;;;;;9.40;1.95;;;;;;;4.80;100.00;100260.94;4877401;29;21025;-92
2021/10/21 02:47:35;;;;;;;15.30;1.57;;;;;;;4.80;100.00;100266.28;4897671;29;20032;-92
2021/10/21 02:50:01;;;;;;;11.57;1.70;;;;;;;4.55;100.00;100238.53;4899983;29;20094;-91
2021/10/21 02:52:28;;;;;;;10.02;1.52;;;;;;;4.51;100.00;100243.31;4880718;29;20054;-91
2021/10/21 02:54:53;;;;;;;17.00;2.08;;;;;;;4.61;100.00;100260.09;4866647;29;20066;-92
2021/10/21 02:57:22;;;;;;;12.32;2.08;;;;;;;4.61;100.00;100270.72;4899082;29;20048;-92
2021/10/21 02:59:47;;;;;;;9.40;1.75;;;;;;;4.67;100.00;100268.47;4875344;29;20559;-92
2021/10/21 03:02:15;;;;;;;14.23;2.03;;;;;;;4.63;100.00;100279.41;4876239;29;20040;-92
2021/10/21 03:04:44;;;;;;;19.23;3.15;;;;;;;4.45;100.00;100257.25;4887072;29;20132;-92
2021/10/21 03:07:12;;;;;;;7.55;1.35;;;;;;;4.58;100.00;100276.38;4887302;29;20127;-91
2021/10/21 03:09:38;;;;;;;4.68;1.17;;;;;;;4.59;100.00;100282.53;4862965;29;20044;-92
2021/10/21 03:12:03;;;;;;;16.75;2.47;;;;;;;4.52;100.00;100287.59;4896757;29;20063;-92
2021/10/21 03:14:29;;;;;;;12.00;1.30;;;;;;;4.53;100.00;100305.25;4893946;29;20028;-91
2021/10/21 03:16:55;;;;;;;24.80;2.60;;;;;;;4.44;100.00;100291.97;4868189;29;20048;-94
2021/10/21 03:19:21;;;;;;;11.98;1.75;;;;;;;4.52;100.00;100316.88;4868057;29;20063;-92
2021/10/21 03:21:46;;;;;;;9.45;1.65;;;;;;;4.52;100.00;100329.34;4885048;29;20051;-92
2021/10/21 03:24:15;;;;;;;8.15;1.52;;;;;;;4.36;100.00;100327.31;4883679;29;20050;-91
2021/10/21 03:26:40;;;;;;;10.18;1.48;;;;;;;4.27;100.00;100337.03;4886537;29;20032;-92
2021/10/21 03:29:06;;;;;;;8.82;1.38;;;;;;;4.07;100.00;100320.25;4868942;29;20047;-91
2021/10/21 03:31:32;;;;;;;8.25;1.73;;;;;;;4.12;100.00;100346.44;4889308;29;20044;-92
2021/10/21 03:33:58;;;;;;;15.52;1.55;;;;;;;3.90;100.00;100329.00;4873359;29;20447;-92
2021/10/21 03:36:24;;;;;;;10.23;1.90;;;;;;;4.04;100.00;100372.94;4871958;29;20043;-92
2021/10/21 03:38:53;;;;;;;17.63;1.45;;;;;;;3.90;100.00;100367.06;4876935;29;20084;-91
2021/10/21 03:41:19;;;;;;;7.07;1.00;;;;;;;4.00;100.00;100384.88;4882432;29;20040;-91
2021/10/21 03:43:45;;;;;;;9.45;1.30;;;;;;;3.96;100.00;100389.59;4885597;29;20036;-92
2021/10/21 03:46:11;;;;;;;8.10;1.55;;;;;;;4.19;100.00;100419.41;4879399;29;20048;-92
2021/10/21 03:48:37;;;;;;;6.18;1.15;;;;;;;4.22;100.00;100391.66;4897777;29;20386;-93
2021/10/21 03:51:02;;;;;;;4.70;0.88;;;;;;;4.27;100.00;100402.72;4883979;29;20074;-92
2021/10/21 03:53:28;;;;;;;6.40;1.48;;;;;;;4.38;100.00;100422.03;4882701;29;20062;-91
2021/10/21 03:55:54;;;;;;;4.57;1.00;;;;;;;4.46;100.00;100428.44;4881631;29;20052;-91
2021/10/21 03:58:21;;;;;;;8.52;1.10;;;;;;;4.32;100.00;100435.06;4886954;29;20064;-91
2021/10/21 04:00:50;;;;;;;10.50;1.40;;;;;;;4.16;100.00;100436.50;4884288;29;20042;-91
2021/10/21 04:03:15;;;;;;;2.70;0.77;;;;;;;4.22;100.00;100459.03;4885437;29;20550;-91
2021/10/21 04:05:41;;;;;;;6.20;1.50;;;;;;;4.13;100.00;100465.22;4879777;29;20132;-92
2021/10/21 04:08:07;;;;;;;9.88;1.88;;;;;;;3.87;100.00;100441.84;4881017;29;20039;-92
2021/10/21 04:10:33;;;;;;;10.95;1.65;;;;;;;3.94;100.00;100469.56;4857285;29;20072;-93
2021/10/21 04:12:58;;;;;;;15.18;1.75;;;;;;;3.85;100.00;100461.56;4913099;29;20074;-94
2021/10/21 04:15:27;;;;;;;15.73;1.58;;;;;;;3.76;100.00;100460.59;4881681;29;20413;-91
2021/10/21 04:17:53;;;;;;;10.50;1.88;;;;;;;3.60;100.00;100449.66;4897503;29;20119;-91
2021/10/21 04:20:20;;;;;;;7.70;1.73;;;;;;;3.64;100.00;100464.34;4878342;29;20833;-92
2021/10/21 04:22:46;;;;;;;6.72;1.73;;;;;;;3.49;100.00;100470.09;4879018;29;20032;-93
2021/10/21 04:25:12;;;;;;;9.27;2.13;;;;;;;3.50;100.00;100471.75;4881846;29;20051;-92
2021/10/21 04:27:38;;;;;;;8.02;1.42;;;;;;;3.66;100.00;100497.81;4868724;29;20079;-91
2021/10/21 04:30:05;;;;;;;12.88;1.52;;;;;;;3.65;100.00;100487.28;4887196;29;20040;-92
2021/10/21 04:32:31;;;;;;;6.63;1.05;;;;;;;3.72;100.00;100496.41;4889113;29;20083;-93
2021/10/21 04:35:00;;;;;;;9.55;2.35;;;;;;;3.79;100.00;100516.16;4883128;29;20028;-92
2021/10/21 04:37:26;;;;;;;7.93;2.22;;;;;;;3.76;100.00;100527.09;4881975;29;20091;-92
2021/10/21 04:39:52;;;;;;;10.98;2.08;;;;;;;3.78;100.00;100530.44;4880625;29;20040;-93
2021/10/21 04:42:18;;;;;;;4.13;1.45;;;;;;;3.84;100.00;100540.53;4881470;29;20047;-92
2021/10/21 04:44:44;;;;;;;6.28;1.20;;;;;;;3.66;100.00;100529.72;4884577;29;20064;-92
2021/10/21 04:47:10;;;;;;;9.82;0.93;;;;;;;3.62;100.00;100552.22;4891181;29;20055;-92
2021/10/21 04:49:36;;;;;;;7.13;1.25;;;;;;;3.31;100.00;100514.25;4881601;29;20119;-92
2021/10/21 04:52:02;;;;;;;6.72;1.40;;;;;;;3.37;100.00;100555.38;4877892;29;20145;-92
2021/10/21 04:54:28;;;;;;;3.97;0.82;;;;;;;3.31;100.00;100572.69;4865877;29;20040;-91
2021/10/21 04:56:56;;;;;;;10.93;1.50;;;;;;;3.08;100.00;100545.47;4863861;29;20028;-92
2021/10/21 04:59:22;;;;;;;9.27;1.10;;;;;;;3.00;100.00;100556.75;4884550;29;20069;-92
2021/10/21 05:01:50;;;;;;;11.00;1.65;;;;;;;3.02;100.00;100568.09;4882072;29;20432;-92
2021/10/21 05:04:17;;;;;;;13.65;2.25;;;;;;;3.01;100.00;100576.19;4883167;29;20035;-90
2021/10/21 05:06:43;;;;;;;5.97;1.25;;;;;;;2.94;100.00;100583.84;4863947;29;20071;-91
2021/10/21 05:09:09;;;;;;;8.82;1.83;;;;;;;2.96;100.00;100583.69;4870374;29;21785;-91
2021/10/21 05:11:34;;;;;;;9.43;2.15;;;;;;;2.86;100.00;100565.06;4888589;29;20044;-90
2021/10/21 05:14:00;;;;;;;7.63;1.00;;;;;;;3.09;100.00;100602.91;4880461;29;20028;-91
2021/10/21 05:16:26;;;;;;;3.90;1.15;;;;;;;2.91;100.00;100589.41;4864522;29;20036;-91
2021/10/21 05:18:54;;;;;;;10.48;1.30;;;;;;;2.79;100.00;100582.47;4881989;29;20111;-92
2021/10/21 05:21:20;;;;;;;6.43;1.25;;;;;;;2.83;100.00;100599.81;4891473;29;20096;-92
2021/10/21 05:23:46;;;;;;;8.63;1.35;;;;;;;2.81;100.00;100601.78;4878122;29;20044;-91
2021/10/21 05:26:12;;;;;;;7.00;1.00;;;;;;;2.85;100.00;100598.72;4883301;29;20455;-92
2021/10/21 05:28:37;;;;;;;12.15;1.58;;;;;;;3.02;100.00;100625.69;4896310;29;20035;-92
2021/10/21 05:31:03;;;;;;;3.25;1.00;;;;;;;2.85;100.00;100605.84;4895623;29;20280;-91
2021/10/21 05:33:34;;;;;;;7.80;1.50;;;;;;;3.01;100.00;100635.44;4888428;29;20040;-92
2021/10/21 05:36:04;;;;;;;10.73;1.65;;;;;;;2.81;100.00;100615.91;4888435;29;20107;-92
2021/10/21 05:38:30;;;;;;;3.28;0.80;;;;;;;2.90;100.00;100643.50;4883119;29;20033;-92
2021/10/21 05:40:55;;;;;;;7.22;1.80;;;;;;;2.81;100.00;100629.19;4873596;29;20437;-93
2021/10/21 05:43:22;;;;;;;11.00;0.93;;;;;;;3.11;100.00;100663.91;4877906;29;20192;-92
2021/10/21 05:45:48;;;;;;;13.68;1.95;;;;;;;3.06;100.00;100654.50;4877233;29;20028;-92
2021/10/21 05:48:16;;;;;;;5.93;1.25;;;;;;;3.03;100.00;100649.44;4883781;29;20394;-92
2021/10/21 05:50:42;;;;;;;21.73;1.67;;;;;;;2.85;100.00;100635.91;4889283;29;20100;-92
2021/10/21 05:53:08;;;;;;;9.13;1.45;;;;;;;2.92;100.00;100646.88;4885066;29;20043;-91
2021/10/21 05:55:34;;;;;;;5.45;1.38;;;;;;;2.88;100.00;100660.53;4879334;29;20036;-92
2021/10/21 05:58:01;;;;;;;11.25;1.60;;;;;;;2.71;100.00;100653.97;4887056;29;20116;-91
2021/10/21 06:00:27;;;;;;;6.20;1.20;;;;;;;2.66;100.00;100667.63;4861098;29;20055;-94
2021/10/21 06:02:54;;;;;;;16.48;1.60;;;;;;;2.73;100.00;100686.56;4871964;29;20037;-93
2021/10/21 06:05:22;;;;;;;5.78;1.33;;;;;;;2.62;100.00;100666.22;4875154;29;20063;-94
2021/10/21 06:07:49;;;;;;;7.40;1.58;;;;;;;2.62;100.00;100688.28;4857388;29;20579;-92
2021/10/21 06:10:15;;;;;;;4.82;1.35;;;;;;;2.42;100.00;100691.72;4853979;29;20558;-92
2021/10/21 06:12:43;;;;;;;9.73;1.30;;;;;;;2.24;100.00;100698.50;4868605;29;20063;-94
2021/10/21 06:15:13;;;;;;;4.00;0.75;;;;;;;2.31;100.00;100726.25;4867484;29;20199;-93
2021/10/21 06:17:41;;;;;;;1.45;1.20;;;;;;;2.24;100.00;100725.03;4890939;29;20104;-93
2021/10/21 06:20:11;;;;;;;7.88;1.33;;;;;;;2.05;100.00;100726.50;4875944;29;20039;-91
2021/10/21 06:22:37;;;;;;;4.82;1.20;;;;;;;1.90;100.00;100719.75;4875705;29;20067;-93
2021/10/21 06:25:07;;;;;;;5.97;1.17;;;;;;;1.99;100.00;100764.13;4883759;29;20079;-92
2021/10/21 06:27:33;;;;;;;3.35;0.93;;;;;;;1.64;100.00;100716.50;4884335;29;20100;-92
2021/10/21 06:29:59;;;;;;;9.10;1.45;;;;;;;1.60;100.00;100736.25;4890962;29;20036;-93
2021/10/21 06:32:25;;;;;;;4.05;1.15;;;;;;;1.48;100.00;100727.44;4860841;29;20028;-93
2021/10/21 06:34:53;;;;;;;6.00;1.00;;;;;;;1.66;100.00;100776.38;4878935;29;20048;-93
2021/10/21 06:37:19;;;;;;;7.45;1.33;;;;;;;1.34;100.00;100740.91;4876005;29;20062;-93
2021/10/21 06:39:55;;;;;;;3.58;0.98;;;;;;;1.70;100.00;100796.38;4860157;29;20478;-91
2021/10/21 06:42:22;;;;;;;6.70;0.65;;;;;;;1.61;100.00;100785.63;4902208;29;20114;-91
2021/10/21 06:44:49;;;;;;;4.22;0.95;;;;;;;1.40;100.00;100764.25;4883301;29;20405;-92
2021/10/21 06:47:15;;;;;;;1.92;1.08;;;;;;;1.50;100.00;100795.25;4874952;29;20059;-92
2021/10/21 06:49:40;;;;;;;5.72;0.85;;;;;;;1.39;100.00;100803.16;4875380;29;20032;-92
2021/10/21 06:52:08;;;;;;;4.03;1.55;;;;;;;1.15;100.00;100775.88;4860338;29;20071;-94
2021/10/21 06:54:34;;;;;;;18.58;2.85;;;;;;;1.17;100.00;100788.06;4894388;29;20047;-92
2021/10/21 06:57:00;;;;;;;7.15;1.20;;;;;;;1.39;100.00;100816.41;4886558;29;20028;-92
2021/10/21 06:59:26;;;;;;;9.80;1.33;;;;;;;1.27;100.00;100804.06;4884495;29;20044;-93
2021/10/21 07:01:52;;;;;;;2.97;1.30;;;;;;;1.24;100.00;100804.31;4878512;29;20052;-92
2021/10/21 07:04:20;;;;;;;8.50;1.77;;;;;;;1.44;100.00;100832.81;4885747;29;20040;-94
2021/10/21 07:06:46;;;;;;;5.88;1.90;;;;;;;1.46;100.00;100824.75;4883007;29;20036;-93
2021/10/21 07:09:12;;;;;;;10.52;1.80;;;;;;;1.52;100.00;100829.59;4874620;29;20046;-93
2021/10/21 07:11:38;;;;;;;14.00;2.28;;;;;;;1.51;100.00;100830.56;4892306;29;20036;-93
2021/10/21 07:14:04;;;;;;;9.25;1.83;;;;;;;1.48;100.00;100820.16;4890605;29;20568;-93
2021/10/21 07:16:30;;;;;;;13.48;2.53;;;;;;;1.54;100.00;100848.88;4882917;29;20047;-94
2021/10/21 07:18:56;;;;;;;3.70;1.30;;;;;;;1.48;100.00;100836.06;4881638;29;20500;-95
2021/10/21 07:21:23;;;;;;;16.67;2.15;;;;;;;1.69;100.00;100844.22;4895737;29;20766;-93
2021/10/21 07:23:48;;;;;;;10.95;1.50;;;;;;;1.58;100.00;100830.94;4894897;29;20049;-93
2021/10/21 07:26:15;;;;;;;7.15;1.30;;;;;;;1.76;100.00;100864.00;4910237;29;20044;-94
2021/10/21 07:28:43;;;;;;;11.52;1.65;;;;;;;1.93;100.00;100886.56;4907672;29;20044;-93
2021/10/21 07:31:14;;;;;;;6.32;1.02;;;;;;;1.94;100.00;100881.16;4892891;29;20062;-93
2021/10/21 07:33:43;;;;;;;21.35;1.90;;;;;;;2.05;100.00;100877.69;4879490;29;20039;-93
2021/10/21 07:36:09;;;;;;;21.45;1.98;;;;;;;2.23;100.00;100887.84;4882142;29;20040;-94
2021/10/21 07:38:35;;;;;;;7.93;1.23;;;;;;;2.14;100.00;100876.13;4884390;29;20047;-93
2021/10/21 07:41:01;;;;;;;18.42;2.85;;;;;;;2.40;100.00;100922.69;4875254;29;21508;-93
2021/10/21 07:43:27;;;;;;;12.10;1.30;;;;;;;2.15;100.00;100891.94;4890250;29;20039;-93
2021/10/21 07:45:56;;;;;;;9.23;2.03;;;;;;;2.11;100.00;100894.94;4868216;29;20032;-93
2021/10/21 07:48:27;;;;;;;7.25;1.15;;;;;;;2.30;100.00;100944.75;4883327;29;20028;-93
2021/10/21 07:50:53;;;;;;;7.97;2.03;;;;;;;1.99;100.00;100899.38;4897024;29;20409;-92
2021/10/21 07:53:19;;;;;;;6.82;2.50;;;;;;;2.11;100.00;100930.25;4867150;29;20035;-92
2021/10/21 07:55:45;;;;;;;7.47;1.40;;;;;;;2.11;100.00;100940.84;4885370;29;20049;-94
2021/10/21 07:58:14;;;;;;;11.15;1.48;;;;;;;2.26;100.00;100961.91;4900814;29;20046;-92
2021/10/21 08:00:42;;;;;;;9.98;2.30;;;;;;;2.26;100.00;100959.25;4881566;29;20068;-92
2021/10/21 08:03:08;;;;;;;7.38;2.53;;;;;;;2.28;100.00;100952.00;4882900;29;20036;-92
2021/10/21 08:05:34;;;;;;;9.95;3.20;;;;;;;2.42;100.00;100971.19;4878105;29;20055;-91
2021/10/21 08:08:04;;;;;;;7.70;1.95;;;;;;;2.35;100.00;100950.56;4888132;29;20095;-92
2021/10/21 08:10:32;;;;;;;8.57;2.10;;;;;;;2.48;100.00;100971.69;4894536;29;20187;-92
2021/10/21 08:13:21;;;;;;;5.35;1.35;;;;;;;2.57;100.00;100993.06;4882031;29;20050;-92
2021/10/21 08:15:47;;;;;;;7.80;1.67;;;;;;;2.50;100.00;100981.22;4880515;29;20040;-93
2021/10/21 08:18:13;;;;;;;8.93;2.10;;;;;;;2.67;100.00;101005.63;4866855;29;20508;-91
2021/10/21 08:20:41;;;;;;;10.02;1.90;;;;;;;2.88;100.00;101027.00;4878886;29;20044;-92
2021/10/21 08:23:07;;;;;;;13.55;2.10;;;;;;;2.99;100.00;101030.53;4878618;29;20039;-91
2021/10/21 08:25:33;;;;;;;11.45;1.73;;;;;;;3.14;100.00;101014.34;4883344;29;20063;-93
2021/10/21 08:28:00;;;;;;;11.23;2.25;;;;;;;3.37;100.00;101033.78;4881816;29;20037;-92
2021/10/21 08:30:26;;;;;;;7.68;1.67;;;;;;;3.53;100.00;101040.41;4895010;29;20029;-92
2021/10/21 08:32:57;;;;;;;17.35;2.47;;;;;;;3.88;100.00;101057.97;4912675;29;20036;-91
2021/10/21 08:35:28;;;;;;;18.63;2.58;;;;;;;4.09;100.00;101067.84;4889758;29;20047;-92
2021/10/21 08:37:54;;;;;;;12.95;2.42;;;;;;;4.28;100.00;101061.81;4896581;29;21668;-92
2021/10/21 08:40:20;;;;;;;13.20;2.15;;;;;;;4.21;100.00;101034.91;4883564;29;20050;-93
2021/10/21 08:42:46;;;;;;;15.48;3.03;;;;;;;4.58;100.00;101066.41;4886021;29;20087;-91
2021/10/21 08:45:12;;;;;;;7.65;1.30;;;;;;;4.64;100.00;101055.25;4884497;29;20040;-91
2021/10/21 08:47:42;;;;;;;10.23;1.90;;;;;;;4.90;100.00;101070.84;4875645;29;20031;-91
2021/10/21 08:50:11;;;;;;;8.20;1.17;;;;;;;4.92;100.00;101061.72;4882736;29;20063;-92
2021/10/21 08:52:38;;;;;;;11.75;1.30;;;;;;;4.99;100.00;101043.38;4899144;29;20471;-92
2021/10/21 08:55:06;;;;;;;8.45;1.55;;;;;;;5.35;100.00;101081.16;4894714;29;20106;-91
2021/10/21 08:57:32;;;;;;;5.60;1.35;;;;;;;5.43;99.91;101070.66;4879729;29;20165;-91
2021/10/21 08:59:58;;;;;;;4.88;1.65;;;;;;;5.70;99.52;101081.53;4882475;29;20036;-91
2021/10/21 09:02:45;;;;;;;8.27;2.20;;;;;;;5.91;99.33;101085.97;4884082;29;20108;-92
2021/10/21 09:05:26;;;;;;;22.75;3.22;;;;;;;5.98;98.47;101073.78;4883902;29;20044;-90
2021/10/21 09:08:12;;;;;;;12.38;1.70;;;;;;;6.28;97.65;101096.00;4884892;29;20036;-92
2021/10/21 09:10:46;;;;;;;17.20;1.63;;;;;;;6.26;97.70;101092.63;4881230;29;20040;-92
2021/10/21 09:13:23;;;;;;;11.15;1.55;;;;;;;6.47;96.98;101117.38;4872013;29;20037;-90
2021/10/21 09:15:51;;;;;;;6.80;1.50;;;;;;;6.65;98.25;101122.88;4880928;29;20554;-91
2021/10/21 09:18:17;;;;;;;13.00;2.63;;;;;;;6.71;97.63;101110.78;4899715;29;20060;-91
2021/10/21 09:20:47;;;;;;;11.48;2.50;;;;;;;6.98;97.25;101129.56;4884128;29;20054;-91
2021/10/21 09:23:16;;;;;;;8.40;1.73;;;;;;;6.95;97.02;101094.28;4883116;29;20037;-90
2021/10/21 09:25:44;;;;;;;9.75;1.85;;;;;;;7.02;95.92;101098.06;4883047;29;20510;-91
2021/10/21 09:28:28;;;;;;;13.63;2.10;;;;;;;7.35;94.05;101144.84;4901490;29;20748;-92
2021/10/21 09:31:09;;;;;;;11.60;1.52;;;;;;;7.38;96.46;101139.22;4902816;29;20040;-91
2021/10/21 09:33:53;;;;;;;10.10;1.90;;;;;;;7.56;94.93;101157.16;4886747;29;20046;-91
2021/10/21 09:36:21;;;;;;;11.07;1.50;;;;;;;7.57;94.41;101153.47;4887438;29;20047;-91
2021/10/21 09:38:52;;;;;;;8.70;1.83;;;;;;;7.64;96.00;101151.91;4887053;29;20032;-91
2021/10/21 09:41:19;;;;;;;7.25;1.40;;;;;;;7.91;94.59;101159.97;4886444;29;20046;-91
2021/10/21 09:43:46;;;;;;;13.88;1.90;;;;;;;8.12;95.67;101172.25;4883608;29;20036;-91
2021/10/21 09:46:33;;;;;;;9.93;1.77;;;;;;;8.35;94.93;101172.69;4884570;29;20043;-91
2021/10/21 09:49:16;;;;;;;6.95;2.42;;;;;;;8.51;95.30;101172.03;4918749;29;20091;-91
2021/10/21 09:51:45;;;;;;;7.95;2.10;;;;;;;8.65;94.30;101158.09;4884197;29;20068;-92
2021/10/21 09:54:11;;;;;;;11.93;2.10;;;;;;;8.74;94.57;101157.19;4884372;29;20040;-92
2021/10/21 09:57:03;;;;;;;9.65;1.80;;;;;;;9.12;93.45;101194.53;4882567;29;20047;-92
2021/10/21 09:59:30;;;;;;;3.53;1.58;;;;;;;9.27;94.24;101192.16;4887520;29;20052;-91
2021/10/21 10:02:05;;;;;;;10.85;2.33;;;;;;;9.32;91.51;101192.53;4879276;29;20099;-93
2021/10/21 10:04:33;;;;;;;9.63;1.92;;;;;;;9.39;93.19;101181.00;4885580;29;20040;-91
2021/10/21 10:07:01;;;;;;;8.57;1.75;;;;;;;9.32;92.32;101161.16;4880783;29;20095;-95
2021/10/21 10:09:37;;;;;;;12.80;2.88;;;;;;;9.65;93.20;101197.09;4873282;29;20048;-91
2021/10/21 10:12:05;;;;;;;11.77;2.15;;;;;;;9.76;91.83;101190.59;4902416;29;20047;-92
2021/10/21 10:14:43;;;;;;;12.45;2.35;;;;;;;9.87;92.28;101194.84;4886059;29;20509;-92
2021/10/21 10:17:13;;;;;;;8.23;1.83;;;;;;;10.12;92.12;101207.38;4867627;29;20036;-92
2021/10/21 10:19:48;;;;;;;10.40;1.45;;;;;;;10.25;91.66;101195.34;4884979;29;20375;-92
2021/10/21 10:22:24;;;;;;;7.28;1.20;;;;;;;10.19;91.10;101182.56;4882137;29;20048;-93
2021/10/21 10:24:51;;;;;;;7.85;1.17;;;;;;;10.33;91.06;101200.78;4884203;29;20099;-92
2021/10/21 10:27:27;;;;;;;11.30;2.10;;;;;;;10.33;89.00;101209.69;4879034;29;20032;-92
2021/10/21 10:29:53;;;;;;;7.65;1.20;;;;;;;10.31;90.34;101200.09;4870979;29;20402;-95
2021/10/21 10:32:34;;;;;;;11.65;2.15;;;;;;;10.26;90.19;101230.13;4887010;29;20131;-92
2021/10/21 10:35:07;;;;;;;5.32;1.45;;;;;;;10.41;90.69;101229.53;4892523;29;20528;-94
2021/10/21 10:37:44;;;;;;;6.70;1.00;;;;;;;10.34;90.48;101227.47;4885223;29;20036;-93
2021/10/21 10:40:12;;;;;;;7.85;1.20;;;;;;;10.16;90.37;101221.38;4889715;29;20127;-94
2021/10/21 10:42:41;;;;;;;8.40;1.30;;;;;;;10.44;89.15;101246.19;4880061;29;20383;-93
2021/10/21 10:45:11;;;;;;;8.73;1.77;;;;;;;10.43;89.46;101233.75;4892242;29;20542;-93
2021/10/21 10:47:40;;;;;;;11.75;2.40;;;;;;;10.59;89.85;101250.94;4915759;29;20032;-93
2021/10/21 10:50:21;;;;;;;11.10;1.27;;;;;;;10.43;88.06;101244.50;4887715;29;20047;-92
2021/10/21 10:52:51;;;;;;;8.98;1.38;;;;;;;10.57;87.84;101253.78;4886477;29;20448;-93
2021/10/21 10:55:22;;;;;;;14.70;1.80;;;;;;;10.62;87.71;101261.38;4889781;29;20036;-94
2021/10/21 10:58:16;;;;;;;7.20;1.17;;;;;;;10.44;86.81;101230.03;4885497;29;20032;-94
2021/10/21 11:00:52;;;;;;;10.10;2.10;;;;;;;10.65;89.71;101255.66;4883610;29;20040;-94
2021/10/21 11:03:38;;;;;;;6.72;1.10;;;;;;;10.86;87.70;101276.72;4901400;29;20067;-92
2021/10/21 11:06:14;;;;;;;7.57;1.08;;;;;;;10.94;86.54;101287.50;4880444;29;20033;-94
2021/10/21 11:11:55;;;;;;;12.93;1.92;;;;;;;10.97;79.85;101269.16;4895845;29;20363;-95
2021/10/21 11:14:43;;;;;;;2.85;0.75;;;;;;;10.85;83.22;101297.41;4898161;29;20410;-92
2021/10/21 11:17:09;;;;;;;10.00;1.50;;;;;;;10.93;77.42;101294.72;4915076;29;20466;-94
2021/10/21 11:19:45;;;;;;;9.15;1.20;;;;;;;11.00;80.20;101300.28;4885586;29;20044;-93
2021/10/21 11:22:35;;;;;;;8.35;1.10;;;;;;;10.99;83.58;101291.38;4884771;29;20047;-93
2021/10/21 11:25:04;;;;;;;2.40;0.85;;;;;;;11.09;81.45;101274.25;4881026;29;20508;-94
2021/10/21 11:27:48;;;;;;;5.50;1.48;;;;;;;11.34;79.83;101300.16;4885604;29;20054;-95
2021/10/21 11:30:20;;;;;;;6.72;1.35;;;;;;;11.37;81.08;101289.03;4891938;29;20040;-94
2021/10/21 11:32:47;;;;;;;3.35;1.77;;;;;;;11.44;78.57;101276.59;4876173;29;20119;-95
2021/10/21 11:35:27;;;;;;;5.93;1.10;;;;;;;11.51;77.08;101286.69;4887044;29;20040;-94
2021/10/21 11:37:55;;;;;;;9.85;1.45;;;;;;;11.56;75.84;101311.25;4888547;29;20047;-96